Anchorage/Lake Hood Seaplane Base, Alaska
Current Conditions -  °F | °C
As of 11:53 PM on Tuesday 25 Nov 2014 (Local Time) from PALH Reporting Station
Overcast Overcast  
Wind Chill: 27°   Ceiling: 2800
Heat Index: 32°   Visibility: 10mi
Dew Point: 28°   Wind: 5mph
Humidity: 85%   Direction: 40°NE
Pressure: 30.34"   Gusts: NA
Location:  61.18°N, 149.97°W
Report Text: PALH 260853Z 04004KT 10SM FEW017 BKN028 OVC033 00/M02 A3034 RMK AO2 SNE03 SLP273 P0000 60000 T00001022 400221028 51014
Loading
Personal Weather Stations






























Interactive Weather Map New forecast layout! Learn more

10-Day Weather Forecast

Advertisements
Track Severe Weather on mobile